sensor_id;sensor_type;location;lat;lon;timestamp;pressure;altitude;pressure_sealevel;temperature;humidity
63665;BME280;49820;33.966;73.390;2023-02-13T00:01:33;78722.97;;;-1.71;34.24
63665;BME280;49820;33.966;73.390;2023-02-13T00:04:02;78729.81;;;-1.48;32.72
63665;BME280;49820;33.966;73.390;2023-02-13T00:06:32;78738.22;;;-1.56;33.04
63665;BME280;49820;33.966;73.390;2023-02-13T00:09:00;78736.59;;;-1.77;33.29
63665;BME280;49820;33.966;73.390;2023-02-13T00:11:34;78741.88;;;-1.75;35.64
63665;BME280;49820;33.966;73.390;2023-02-13T00:14:04;78749.53;;;-1.89;36.32
63665;BME280;49820;33.966;73.390;2023-02-13T00:16:33;78728.94;;;-2.09;34.88
63665;BME280;49820;33.966;73.390;2023-02-13T00:19:03;78735.81;;;-1.87;33.82
63665;BME280;49820;33.966;73.390;2023-02-13T00:21:32;78699.06;;;-1.94;33.44
63665;BME280;49820;33.966;73.390;2023-02-13T00:24:01;78756.94;;;-1.75;32.10
63665;BME280;49820;33.966;73.390;2023-02-13T00:26:30;78759.44;;;-1.83;34.01
63665;BME280;49820;33.966;73.390;2023-02-13T00:28:59;78761.63;;;-1.68;33.52
63665;BME280;49820;33.966;73.390;2023-02-13T00:31:29;78736.38;;;-1.95;32.32
63665;BME280;49820;33.966;73.390;2023-02-13T00:33:58;78744.88;;;-1.48;31.07
63665;BME280;49820;33.966;73.390;2023-02-13T00:36:27;78746.34;;;-1.35;31.25
63665;BME280;49820;33.966;73.390;2023-02-13T00:38:57;78734.94;;;-1.56;32.29
63665;BME280;49820;33.966;73.390;2023-02-13T00:41:26;78738.25;;;-1.51;30.28
63665;BME280;49820;33.966;73.390;2023-02-13T00:43:56;78741.03;;;-1.41;32.02
63665;BME280;49820;33.966;73.390;2023-02-13T00:46:25;78757.41;;;-1.41;30.08
63665;BME280;49820;33.966;73.390;2023-02-13T00:48:54;78770.41;;;-1.49;31.92
63665;BME280;49820;33.966;73.390;2023-02-13T00:51:23;78758.94;;;-1.24;31.79
63665;BME280;49820;33.966;73.390;2023-02-13T00:53:53;78754.69;;;-1.49;32.08
63665;BME280;49820;33.966;73.390;2023-02-13T00:56:24;78755.78;;;-1.64;33.62
63665;BME280;49820;33.966;73.390;2023-02-13T00:58:53;78760.47;;;-1.57;30.62
63665;BME280;49820;33.966;73.390;2023-02-13T01:01:24;78776.25;;;-1.50;31.37
63665;BME280;49820;33.966;73.390;2023-02-13T01:03:54;78747.63;;;-1.84;32.24
63665;BME280;49820;33.966;73.390;2023-02-13T01:06:23;78769.00;;;-1.56;30.20
63665;BME280;49820;33.966;73.390;2023-02-13T01:08:52;78758.44;;;-1.62;32.83
63665;BME280;49820;33.966;73.390;2023-02-13T01:11:21;78740.53;;;-1.78;31.82
63665;BME280;49820;33.966;73.390;2023-02-13T01:13:50;78738.63;;;-1.73;30.21
63665;BME280;49820;33.966;73.390;2023-02-13T01:16:19;78742.50;;;-1.76;32.07
63665;BME280;49820;33.966;73.390;2023-02-13T01:18:49;78731.25;;;-1.87;32.35
63665;BME280;49820;33.966;73.390;2023-02-13T01:21:20;78778.91;;;-1.48;30.06
63665;BME280;49820;33.966;73.390;2023-02-13T01:23:52;78774.38;;;-1.44;29.32
63665;BME280;49820;33.966;73.390;2023-02-13T01:26:23;78775.63;;;-1.49;34.79
63665;BME280;49820;33.966;73.390;2023-02-13T01:28:54;78739.22;;;-1.77;34.52
63665;BME280;49820;33.966;73.390;2023-02-13T01:31:25;78753.63;;;-1.78;33.83
63665;BME280;49820;33.966;73.390;2023-02-13T01:33:56;78759.75;;;-1.61;30.45
63665;BME280;49820;33.966;73.390;2023-02-13T01:36:26;78764.47;;;-1.51;32.15
63665;BME280;49820;33.966;73.390;2023-02-13T01:38:57;78782.38;;;-1.34;31.62
63665;BME280;49820;33.966;73.390;2023-02-13T01:41:27;78740.09;;;-1.62;32.23
63665;BME280;49820;33.966;73.390;2023-02-13T01:44:00;78782.50;;;-1.26;32.56
63665;BME280;49820;33.966;73.390;2023-02-13T01:46:34;78785.66;;;-0.25;29.79
63665;BME280;49820;33.966;73.390;2023-02-13T01:49:12;78760.16;;;-0.16;28.32
63665;BME280;49820;33.966;73.390;2023-02-13T01:51:44;78777.22;;;-0.13;29.43
63665;BME280;49820;33.966;73.390;2023-02-13T01:54:26;78753.38;;;-0.38;30.62
63665;BME280;49820;33.966;73.390;2023-02-13T01:57:07;78761.31;;;-0.29;27.50
63665;BME280;49820;33.966;73.390;2023-02-13T01:59:52;78780.78;;;0.14;31.94
63665;BME280;49820;33.966;73.390;2023-02-13T02:02:23;78756.50;;;0.15;28.48
63665;BME280;49820;33.966;73.390;2023-02-13T02:04:53;78788.50;;;0.76;29.14
63665;BME280;49820;33.966;73.390;2023-02-13T02:07:26;78778.16;;;1.04;28.84
63665;BME280;49820;33.966;73.390;2023-02-13T02:10:04;78783.94;;;0.85;27.20
63665;BME280;49820;33.966;73.390;2023-02-13T02:12:52;78781.06;;;0.50;26.86
63665;BME280;49820;33.966;73.390;2023-02-13T02:15:24;78788.53;;;0.84;22.50
63665;BME280;49820;33.966;73.390;2023-02-13T02:17:53;78782.78;;;1.08;24.42
63665;BME280;49820;33.966;73.390;2023-02-13T02:56:41;78817.25;;;5.99;25.79
63665;BME280;49820;33.966;73.390;2023-02-13T02:59:15;78815.63;;;5.47;25.47
63665;BME280;49820;33.966;73.390;2023-02-13T03:02:05;78837.41;;;6.45;28.03
63665;BME280;49820;33.966;73.390;2023-02-13T03:04:56;78842.78;;;7.00;25.36
63665;BME280;49820;33.966;73.390;2023-02-13T03:07:44;78814.31;;;7.48;26.74
63665;BME280;49820;33.966;73.390;2023-02-13T03:10:19;78837.31;;;8.15;23.66
63665;BME280;49820;33.966;73.390;2023-02-13T03:13:14;78843.72;;;8.75;23.93
63665;BME280;49820;33.966;73.390;2023-02-13T03:15:55;78815.84;;;8.70;21.84
63665;BME280;49820;33.966;73.390;2023-02-13T03:18:48;78841.63;;;9.18;24.49
63665;BME280;49820;33.966;73.390;2023-02-13T03:21:55;78846.16;;;8.89;26.29
63665;BME280;49820;33.966;73.390;2023-02-13T03:24:58;78855.88;;;8.64;25.14
63665;BME280;49820;33.966;73.390;2023-02-13T03:44:51;78839.28;;;9.00;17.73
63665;BME280;49820;33.966;73.390;2023-02-13T03:47:42;78860.94;;;9.19;19.31
63665;BME280;49820;33.966;73.390;2023-02-13T03:50:14;78859.19;;;9.42;23.82
63665;BME280;49820;33.966;73.390;2023-02-13T03:55:31;78888.56;;;10.10;23.72
63665;BME280;49820;33.966;73.390;2023-02-13T03:58:24;78867.63;;;10.23;18.51
63665;BME280;49820;33.966;73.390;2023-02-13T04:01:16;78874.25;;;10.57;15.06
63665;BME280;49820;33.966;73.390;2023-02-13T04:04:10;78891.63;;;10.87;13.73
63665;BME280;49820;33.966;73.390;2023-02-13T04:09:15;78878.63;;;11.01;20.21
63665;BME280;49820;33.966;73.390;2023-02-13T04:14:33;78902.34;;;11.16;23.26
63665;BME280;49820;33.966;73.390;2023-02-13T04:17:08;78895.50;;;10.94;23.73
63665;BME280;49820;33.966;73.390;2023-02-13T04:19:38;78895.50;;;10.94;15.24
63665;BME280;49820;33.966;73.390;2023-02-13T04:22:10;78899.69;;;10.85;14.47
63665;BME280;49820;33.966;73.390;2023-02-13T04:24:40;78885.59;;;10.57;13.75
63665;BME280;49820;33.966;73.390;2023-02-13T04:27:13;78886.44;;;10.50;14.13
63665;BME280;49820;33.966;73.390;2023-02-13T04:29:43;78872.91;;;10.27;16.32
63665;BME280;49820;33.966;73.390;2023-02-13T04:32:13;78879.31;;;10.38;22.82
63665;BME280;49820;33.966;73.390;2023-02-13T04:34:42;78904.94;;;10.27;18.64
63665;BME280;49820;33.966;73.390;2023-02-13T04:37:11;78908.84;;;9.97;17.73
63665;BME280;49820;33.966;73.390;2023-02-13T04:39:40;78882.56;;;9.77;22.58
63665;BME280;49820;33.966;73.390;2023-02-13T04:42:09;78911.06;;;9.86;24.77
63665;BME280;49820;33.966;73.390;2023-02-13T04:44:39;78900.94;;;9.56;25.96
63665;BME280;49820;33.966;73.390;2023-02-13T04:47:09;78905.56;;;9.57;27.01
63665;BME280;49820;33.966;73.390;2023-02-13T04:49:38;78875.97;;;9.37;26.16
63665;BME280;49820;33.966;73.390;2023-02-13T04:52:07;78903.53;;;9.60;30.04
63665;BME280;49820;33.966;73.390;2023-02-13T04:54:38;78873.41;;;9.31;28.07
63665;BME280;49820;33.966;73.390;2023-02-13T04:57:06;78918.47;;;9.45;26.36
63665;BME280;49820;33.966;73.390;2023-02-13T04:59:36;78908.59;;;9.39;19.34
63665;BME280;49820;33.966;73.390;2023-02-13T05:02:05;78910.47;;;9.45;18.28
63665;BME280;49820;33.966;73.390;2023-02-13T05:04:35;78905.19;;;9.41;28.13
63665;BME280;49820;33.966;73.390;2023-02-13T05:07:04;78908.22;;;9.60;26.33
63665;BME280;49820;33.966;73.390;2023-02-13T05:09:33;78915.09;;;9.83;27.03
63665;BME280;49820;33.966;73.390;2023-02-13T05:12:02;78900.06;;;9.68;24.08
63665;BME280;49820;33.966;73.390;2023-02-13T05:14:31;78903.34;;;9.70;27.00
63665;BME280;49820;33.966;73.390;2023-02-13T05:17:01;78877.09;;;9.48;25.85
63665;BME280;49820;33.966;73.390;2023-02-13T05:19:30;78906.88;;;9.58;24.59
63665;BME280;49820;33.966;73.390;2023-02-13T05:21:59;78921.22;;;9.78;25.99
63665;BME280;49820;33.966;73.390;2023-02-13T05:24:47;78916.19;;;9.97;22.68
63665;BME280;49820;33.966;73.390;2023-02-13T05:27:19;78929.94;;;10.11;21.29
63665;BME280;49820;33.966;73.390;2023-02-13T05:29:49;78927.31;;;10.42;24.85
63665;BME280;49820;33.966;73.390;2023-02-13T05:32:18;78937.88;;;10.79;28.54
63665;BME280;49820;33.966;73.390;2023-02-13T05:34:48;78896.03;;;10.69;25.78
63665;BME280;49820;33.966;73.390;2023-02-13T05:37:18;78933.44;;;10.69;21.58
63665;BME280;49820;33.966;73.390;2023-02-13T05:39:50;78922.75;;;11.00;21.02
63665;BME280;49820;33.966;73.390;2023-02-13T05:42:19;78905.16;;;11.09;20.04
63665;BME280;49820;33.966;73.390;2023-02-13T05:44:49;78908.47;;;11.39;19.64
63665;BME280;49820;33.966;73.390;2023-02-13T05:47:18;78903.34;;;11.58;18.42
63665;BME280;49820;33.966;73.390;2023-02-13T05:49:48;78920.59;;;12.16;16.99
63665;BME280;49820;33.966;73.390;2023-02-13T05:52:17;78908.03;;;12.36;17.47
63665;BME280;49820;33.966;73.390;2023-02-13T05:54:46;78916.16;;;12.81;17.28
63665;BME280;49820;33.966;73.390;2023-02-13T05:57:15;78925.16;;;13.42;19.62
63665;BME280;49820;33.966;73.390;2023-02-13T05:59:45;78907.31;;;13.32;19.92
63665;BME280;49820;33.966;73.390;2023-02-13T06:02:16;78906.09;;;13.94;19.91
63665;BME280;49820;33.966;73.390;2023-02-13T06:04:45;78906.03;;;14.58;18.90
63665;BME280;49820;33.966;73.390;2023-02-13T06:07:16;78899.50;;;15.09;20.21
63665;BME280;49820;33.966;73.390;2023-02-13T06:09:46;78911.72;;;14.87;18.42
63665;BME280;49820;33.966;73.390;2023-02-13T06:12:15;78915.81;;;15.24;18.64
63665;BME280;49820;33.966;73.390;2023-02-13T06:14:45;78903.88;;;15.38;20.26
63665;BME280;49820;33.966;73.390;2023-02-13T06:17:14;78897.03;;;15.59;21.45
63665;BME280;49820;33.966;73.390;2023-02-13T06:19:43;78903.91;;;15.56;20.28
63665;BME280;49820;33.966;73.390;2023-02-13T06:22:12;78908.91;;;15.48;22.62
63665;BME280;49820;33.966;73.390;2023-02-13T06:24:41;78907.16;;;15.94;22.41
63665;BME280;49820;33.966;73.390;2023-02-13T06:27:11;78910.38;;;16.16;20.98
63665;BME280;49820;33.966;73.390;2023-02-13T06:29:40;78906.31;;;16.33;23.85
63665;BME280;49820;33.966;73.390;2023-02-13T06:32:09;78885.91;;;16.72;23.30
63665;BME280;49820;33.966;73.390;2023-02-13T06:34:39;78895.47;;;16.69;21.29
63665;BME280;49820;33.966;73.390;2023-02-13T06:37:08;78906.59;;;17.26;20.79
63665;BME280;49820;33.966;73.390;2023-02-13T06:39:37;78902.41;;;17.29;20.11
63665;BME280;49820;33.966;73.390;2023-02-13T06:42:05;78883.94;;;16.37;19.89
63665;BME280;49820;33.966;73.390;2023-02-13T06:44:34;78882.34;;;17.09;22.67
63665;BME280;49820;33.966;73.390;2023-02-13T06:47:03;78888.09;;;17.64;19.52
63665;BME280;49820;33.966;73.390;2023-02-13T06:49:32;78873.94;;;17.00;19.43
63665;BME280;49820;33.966;73.390;2023-02-13T06:52:02;78878.59;;;17.33;19.93
63665;BME280;49820;33.966;73.390;2023-02-13T06:54:32;78876.28;;;17.08;20.64
63665;BME280;49820;33.966;73.390;2023-02-13T06:57:16;78858.13;;;17.38;19.32
63665;BME280;49820;33.966;73.390;2023-02-13T06:59:45;78855.00;;;16.86;22.88
63665;BME280;49820;33.966;73.390;2023-02-13T07:02:15;78870.25;;;16.91;20.18
63665;BME280;49820;33.966;73.390;2023-02-13T07:04:44;78848.63;;;16.76;20.06
63665;BME280;49820;33.966;73.390;2023-02-13T07:07:13;78822.97;;;16.44;21.41
63665;BME280;49820;33.966;73.390;2023-02-13T07:09:42;78873.63;;;16.41;22.09
63665;BME280;49820;33.966;73.390;2023-02-13T07:12:11;78864.31;;;16.72;21.75
63665;BME280;49820;33.966;73.390;2023-02-13T07:14:42;78863.91;;;16.82;21.43
63665;BME280;49820;33.966;73.390;2023-02-13T07:17:11;78853.53;;;16.05;22.79
63665;BME280;49820;33.966;73.390;2023-02-13T07:19:40;78845.59;;;16.51;21.97
63665;BME280;49820;33.966;73.390;2023-02-13T07:22:10;78866.13;;;16.44;21.81
63665;BME280;49820;33.966;73.390;2023-02-13T07:24:39;78866.22;;;17.07;22.77
63665;BME280;49820;33.966;73.390;2023-02-13T07:27:08;78860.19;;;15.89;21.89
63665;BME280;49820;33.966;73.390;2023-02-13T07:29:40;78854.69;;;16.44;22.08
63665;BME280;49820;33.966;73.390;2023-02-13T07:32:10;78857.03;;;17.48;23.61
63665;BME280;49820;33.966;73.390;2023-02-13T07:34:40;78843.81;;;17.57;24.26
63665;BME280;49820;33.966;73.390;2023-02-13T07:37:28;78847.56;;;17.17;21.52
63665;BME280;49820;33.966;73.390;2023-02-13T07:39:58;78823.66;;;17.39;21.89
63665;BME280;49820;33.966;73.390;2023-02-13T07:42:27;78854.50;;;17.75;21.54
63665;BME280;49820;33.966;73.390;2023-02-13T07:44:56;78853.75;;;17.45;21.80
63665;BME280;49820;33.966;73.390;2023-02-13T07:47:26;78851.22;;;17.27;23.21
63665;BME280;49820;33.966;73.390;2023-02-13T07:49:55;78837.53;;;17.45;22.60
63665;BME280;49820;33.966;73.390;2023-02-13T07:52:24;78827.09;;;17.37;21.30
63665;BME280;49820;33.966;73.390;2023-02-13T07:54:54;78849.66;;;17.46;23.96
63665;BME280;49820;33.966;73.390;2023-02-13T07:57:23;78841.22;;;17.69;21.58
63665;BME280;49820;33.966;73.390;2023-02-13T07:59:52;78844.34;;;18.05;23.64
63665;BME280;49820;33.966;73.390;2023-02-13T08:02:21;78814.97;;;17.97;20.94
63665;BME280;49820;33.966;73.390;2023-02-13T08:04:50;78829.13;;;18.12;22.03
63665;BME280;49820;33.966;73.390;2023-02-13T08:07:20;78828.22;;;17.74;21.10
63665;BME280;49820;33.966;73.390;2023-02-13T08:09:49;78835.19;;;17.69;21.54
63665;BME280;49820;33.966;73.390;2023-02-13T08:12:37;78832.19;;;17.29;21.83
63665;BME280;49820;33.966;73.390;2023-02-13T08:15:13;78821.28;;;17.62;21.62
63665;BME280;49820;33.966;73.390;2023-02-13T08:17:43;78843.81;;;18.59;22.85
63665;BME280;49820;33.966;73.390;2023-02-13T08:20:13;78830.75;;;17.46;22.24
63665;BME280;49820;33.966;73.390;2023-02-13T08:22:43;78840.88;;;17.77;23.01
63665;BME280;49820;33.966;73.390;2023-02-13T08:25:12;78825.06;;;18.41;23.10
63665;BME280;49820;33.966;73.390;2023-02-13T08:27:42;78819.72;;;18.11;21.68
63665;BME280;49820;33.966;73.390;2023-02-13T08:30:12;78814.44;;;18.93;23.62
63665;BME280;49820;33.966;73.390;2023-02-13T08:32:43;78807.88;;;18.04;22.17
63665;BME280;49820;33.966;73.390;2023-02-13T08:35:22;78820.81;;;17.58;21.09
63665;BME280;49820;33.966;73.390;2023-02-13T08:37:54;78810.84;;;16.76;21.95
63665;BME280;49820;33.966;73.390;2023-02-13T08:40:23;78803.41;;;17.08;25.12
63665;BME280;49820;33.966;73.390;2023-02-13T08:42:59;78807.25;;;17.89;21.91
63665;BME280;49820;33.966;73.390;2023-02-13T08:45:34;78794.34;;;17.45;22.63
63665;BME280;49820;33.966;73.390;2023-02-13T08:48:04;78770.16;;;17.73;22.73
63665;BME280;49820;33.966;73.390;2023-02-13T08:50:36;78794.00;;;17.98;23.00
63665;BME280;49820;33.966;73.390;2023-02-13T08:53:05;78781.13;;;17.69;21.85
63665;BME280;49820;33.966;73.390;2023-02-13T08:55:34;78788.41;;;17.87;22.45
63665;BME280;49820;33.966;73.390;2023-02-13T08:58:03;78803.13;;;17.90;22.17
63665;BME280;49820;33.966;73.390;2023-02-13T09:00:33;78783.09;;;17.70;24.81
63665;BME280;49820;33.966;73.390;2023-02-13T09:03:02;78809.25;;;18.75;22.37
63665;BME280;49820;33.966;73.390;2023-02-13T09:05:31;78790.22;;;18.35;24.12
63665;BME280;49820;33.966;73.390;2023-02-13T09:08:01;78789.72;;;18.59;22.41
63665;BME280;49820;33.966;73.390;2023-02-13T09:10:31;78785.31;;;17.95;22.62
63665;BME280;49820;33.966;73.390;2023-02-13T09:13:00;78777.59;;;19.13;23.58
63665;BME280;49820;33.966;73.390;2023-02-13T09:15:30;78788.00;;;19.61;24.43
63665;BME280;49820;33.966;73.390;2023-02-13T09:18:01;78760.78;;;19.51;22.60
63665;BME280;49820;33.966;73.390;2023-02-13T09:20:31;78778.81;;;20.07;21.26
63665;BME280;49820;33.966;73.390;2023-02-13T09:23:03;78780.75;;;19.83;23.40
63665;BME280;49820;33.966;73.390;2023-02-13T09:25:33;78766.94;;;19.09;21.60
63665;BME280;49820;33.966;73.390;2023-02-13T09:28:02;78736.97;;;17.15;23.89
63665;BME280;49820;33.966;73.390;2023-02-13T09:30:31;78789.16;;;18.57;24.96
63665;BME280;49820;33.966;73.390;2023-02-13T09:33:01;78785.06;;;18.85;24.62
63665;BME280;49820;33.966;73.390;2023-02-13T09:35:30;78774.50;;;18.10;23.59
63665;BME280;49820;33.966;73.390;2023-02-13T09:37:59;78771.31;;;18.20;23.24
63665;BME280;49820;33.966;73.390;2023-02-13T09:43:13;78774.47;;;17.22;24.62
63665;BME280;49820;33.966;73.390;2023-02-13T09:45:46;78765.41;;;16.98;25.47
63665;BME280;49820;33.966;73.390;2023-02-13T09:48:28;78772.41;;;16.61;26.48
63665;BME280;49820;33.966;73.390;2023-02-13T09:50:59;78762.34;;;16.43;24.34
63665;BME280;49820;33.966;73.390;2023-02-13T09:53:29;78741.84;;;16.82;25.56
63665;BME280;49820;33.966;73.390;2023-02-13T09:56:15;78751.88;;;16.83;26.29
63665;BME280;49820;33.966;73.390;2023-02-13T09:58:48;78754.91;;;17.21;23.99
63665;BME280;49820;33.966;73.390;2023-02-13T10:01:43;78743.13;;;16.83;26.19
63665;BME280;49820;33.966;73.390;2023-02-13T10:07:22;78768.53;;;16.56;24.31
63665;BME280;49820;33.966;73.390;2023-02-13T10:10:12;78773.56;;;16.16;25.79
63665;BME280;49820;33.966;73.390;2023-02-13T10:18:04;78776.63;;;15.39;25.87
63665;BME280;49820;33.966;73.390;2023-02-13T10:20:55;78767.31;;;16.05;25.85
63665;BME280;49820;33.966;73.390;2023-02-13T10:23:58;78770.72;;;16.20;25.71
63665;BME280;49820;33.966;73.390;2023-02-13T10:26:39;78765.34;;;16.20;25.06
63665;BME280;49820;33.966;73.390;2023-02-13T10:32:17;78753.91;;;16.68;25.22
63665;BME280;49820;33.966;73.390;2023-02-13T10:34:52;78754.03;;;16.32;26.47
63665;BME280;49820;33.966;73.390;2023-02-13T10:37:22;78735.03;;;16.20;25.86
63665;BME280;49820;33.966;73.390;2023-02-13T10:39:52;78728.28;;;16.35;26.13
63665;BME280;49820;33.966;73.390;2023-02-13T10:50:41;78754.66;;;16.01;26.08
63665;BME280;49820;33.966;73.390;2023-02-13T10:56:14;78754.28;;;16.26;25.27
63665;BME280;49820;33.966;73.390;2023-02-13T10:59:01;78755.94;;;16.67;26.83
63665;BME280;49820;33.966;73.390;2023-02-13T11:06:42;78759.69;;;15.59;25.16
63665;BME280;49820;33.966;73.390;2023-02-13T11:09:12;78748.78;;;14.38;27.75
63665;BME280;49820;33.966;73.390;2023-02-13T11:11:42;78758.63;;;14.25;26.96
63665;BME280;49820;33.966;73.390;2023-02-13T11:14:24;78755.22;;;14.83;27.53
63665;BME280;49820;33.966;73.390;2023-02-13T11:17:05;78743.22;;;14.80;27.05
63665;BME280;49820;33.966;73.390;2023-02-13T11:19:48;78744.41;;;14.47;26.04
63665;BME280;49820;33.966;73.390;2023-02-13T11:22:33;78753.19;;;14.08;26.54
63665;BME280;49820;33.966;73.390;2023-02-13T11:25:27;78756.81;;;14.01;26.71
63665;BME280;49820;33.966;73.390;2023-02-13T11:28:09;78720.38;;;13.66;27.60
63665;BME280;49820;33.966;73.390;2023-02-13T11:30:38;78742.31;;;13.73;26.80
63665;BME280;49820;33.966;73.390;2023-02-13T11:35:45;78728.16;;;13.35;27.83
63665;BME280;49820;33.966;73.390;2023-02-13T11:41:02;78749.16;;;12.64;28.62
63665;BME280;49820;33.966;73.390;2023-02-13T11:43:43;78747.50;;;12.73;28.92
63665;BME280;49820;33.966;73.390;2023-02-13T11:46:23;78751.25;;;12.39;29.56
63665;BME280;49820;33.966;73.390;2023-02-13T11:49:03;78762.56;;;11.94;29.98
63665;BME280;49820;33.966;73.390;2023-02-13T11:51:39;78761.25;;;11.43;30.87
63665;BME280;49820;33.966;73.390;2023-02-13T11:57:00;78718.78;;;10.52;32.57
63665;BME280;49820;33.966;73.390;2023-02-13T11:59:39;78734.75;;;10.25;32.50
63665;BME280;49820;33.966;73.390;2023-02-13T12:04:52;78756.78;;;9.95;33.71
63665;BME280;49820;33.966;73.390;2023-02-13T12:07:28;78753.31;;;9.70;33.75
63665;BME280;49820;33.966;73.390;2023-02-13T12:10:18;78741.84;;;9.44;34.24
63665;BME280;49820;33.966;73.390;2023-02-13T12:15:35;78752.22;;;8.91;35.05
63665;BME280;49820;33.966;73.390;2023-02-13T12:18:28;78763.84;;;8.73;35.58
63665;BME280;49820;33.966;73.390;2023-02-13T12:26:13;78776.09;;;8.17;36.43
63665;BME280;49820;33.966;73.390;2023-02-13T12:46:16;78800.06;;;6.63;38.50
63665;BME280;49820;33.966;73.390;2023-02-13T12:51:47;78806.81;;;6.50;37.09
63665;BME280;49820;33.966;73.390;2023-02-13T13:02:39;78814.94;;;6.34;39.89
63665;BME280;49820;33.966;73.390;2023-02-13T13:05:17;78823.72;;;6.18;42.29
63665;BME280;49820;33.966;73.390;2023-02-13T13:08:16;78833.13;;;6.03;42.65
63665;BME280;49820;33.966;73.390;2023-02-13T13:11:01;78823.19;;;6.03;42.88
63665;BME280;49820;33.966;73.390;2023-02-13T13:16:57;78839.50;;;6.32;43.25
63665;BME280;49820;33.966;73.390;2023-02-13T13:22:20;78851.56;;;6.88;41.41
63665;BME280;49820;33.966;73.390;2023-02-13T13:27:36;78847.41;;;6.38;42.22
63665;BME280;49820;33.966;73.390;2023-02-13T13:30:24;78837.84;;;5.94;42.70
63665;BME280;49820;33.966;73.390;2023-02-13T13:41:43;78849.22;;;5.76;44.53
63665;BME280;49820;33.966;73.390;2023-02-13T13:47:04;78811.97;;;4.95;45.94
63665;BME280;49820;33.966;73.390;2023-02-13T13:49:54;78841.69;;;5.06;45.47
63665;BME280;49820;33.966;73.390;2023-02-13T13:52:32;78835.94;;;4.69;46.26
63665;BME280;49820;33.966;73.390;2023-02-13T13:55:03;78832.72;;;4.42;47.41
63665;BME280;49820;33.966;73.390;2023-02-13T14:02:45;78842.56;;;4.57;50.10
63665;BME280;49820;33.966;73.390;2023-02-13T14:05:23;78849.78;;;4.73;49.15
63665;BME280;49820;33.966;73.390;2023-02-13T14:23:42;78847.97;;;4.25;50.67
63665;BME280;49820;33.966;73.390;2023-02-13T14:26:38;78844.72;;;4.12;50.70
63665;BME280;49820;33.966;73.390;2023-02-13T14:31:42;78851.34;;;3.93;50.39
63665;BME280;49820;33.966;73.390;2023-02-13T14:34:25;78861.25;;;4.05;50.37
63665;BME280;49820;33.966;73.390;2023-02-13T14:39:41;78873.78;;;4.08;50.96
63665;BME280;49820;33.966;73.390;2023-02-13T14:42:24;78870.50;;;4.00;51.04
63665;BME280;49820;33.966;73.390;2023-02-13T14:44:58;78873.78;;;4.10;51.25
63665;BME280;49820;33.966;73.390;2023-02-13T14:47:32;78879.03;;;4.22;50.87
63665;BME280;49820;33.966;73.390;2023-02-13T14:50:06;78879.72;;;4.15;50.97
63665;BME280;49820;33.966;73.390;2023-02-13T14:52:38;78853.31;;;3.95;50.55
63665;BME280;49820;33.966;73.390;2023-02-13T14:57:56;78888.94;;;4.24;50.55
63665;BME280;49820;33.966;73.390;2023-02-13T15:00:43;78863.88;;;4.09;50.68
63665;BME280;49820;33.966;73.390;2023-02-13T15:03:28;78894.91;;;4.29;50.35
63665;BME280;49820;33.966;73.390;2023-02-13T15:06:03;78859.25;;;4.01;50.89
63665;BME280;49820;33.966;73.390;2023-02-13T15:08:37;78875.09;;;4.21;50.32
63665;BME280;49820;33.966;73.390;2023-02-13T15:11:10;78842.72;;;3.99;50.17
63665;BME280;49820;33.966;73.390;2023-02-13T15:14:43;78890.25;;;4.33;50.22
63665;BME280;49820;33.966;73.390;2023-02-13T15:17:22;78888.31;;;4.13;50.59
63665;BME280;49820;33.966;73.390;2023-02-13T15:19:54;78883.69;;;4.14;49.47
63665;BME280;49820;33.966;73.390;2023-02-13T15:22:31;78905.44;;;4.51;49.70
63665;BME280;49820;33.966;73.390;2023-02-13T15:25:01;78898.88;;;4.23;49.88
63665;BME280;49820;33.966;73.390;2023-02-13T15:27:36;78896.22;;;4.30;49.60
63665;BME280;49820;33.966;73.390;2023-02-13T15:30:23;78928.59;;;4.30;49.52
63665;BME280;49820;33.966;73.390;2023-02-13T15:33:00;78927.97;;;4.19;50.01
63665;BME280;49820;33.966;73.390;2023-02-13T15:35:33;78918.72;;;4.16;50.15
63665;BME280;49820;33.966;73.390;2023-02-13T15:38:24;78922.03;;;4.19;50.12
63665;BME280;49820;33.966;73.390;2023-02-13T15:43:43;78927.97;;;4.17;50.25
63665;BME280;49820;33.966;73.390;2023-02-13T15:46:26;78956.38;;;4.27;50.29
63665;BME280;49820;33.966;73.390;2023-02-13T15:49:07;78959.03;;;4.35;49.81
63665;BME280;49820;33.966;73.390;2023-02-13T15:51:37;78952.41;;;4.24;50.40
63665;BME280;49820;33.966;73.390;2023-02-13T15:54:26;78939.88;;;4.00;50.77
63665;BME280;49820;33.966;73.390;2023-02-13T15:56:59;78982.19;;;4.04;51.06
63665;BME280;49820;33.966;73.390;2023-02-13T15:59:37;78972.25;;;3.97;50.27
63665;BME280;49820;33.966;73.390;2023-02-13T16:05:12;78959.69;;;3.93;50.64
63665;BME280;49820;33.966;73.390;2023-02-13T16:07:54;78974.91;;;3.95;52.30
63665;BME280;49820;33.966;73.390;2023-02-13T16:10:30;78980.84;;;3.95;50.83
63665;BME280;49820;33.966;73.390;2023-02-13T16:13:03;78960.34;;;3.83;50.65
63665;BME280;49820;33.966;73.390;2023-02-13T16:15:36;78964.31;;;3.99;51.17
63665;BME280;49820;33.966;73.390;2023-02-13T16:18:18;78984.81;;;3.94;53.14
63665;BME280;49820;33.966;73.390;2023-02-13T16:20:53;78988.09;;;3.78;53.38
63665;BME280;49820;33.966;73.390;2023-02-13T16:23:24;78982.16;;;3.72;55.16
63665;BME280;49820;33.966;73.390;2023-02-13T16:26:00;78970.22;;;3.49;55.05
63665;BME280;49820;33.966;73.390;2023-02-13T16:28:32;78968.22;;;3.31;54.36
63665;BME280;49820;33.966;73.390;2023-02-13T16:31:04;78986.72;;;3.51;54.56
63665;BME280;49820;33.966;73.390;2023-02-13T16:33:38;78958.31;;;3.35;54.15
63665;BME280;49820;33.966;73.390;2023-02-13T16:38:47;78974.84;;;3.60;54.24
63665;BME280;49820;33.966;73.390;2023-02-13T16:43:55;78992.03;;;3.53;53.65
63665;BME280;49820;33.966;73.390;2023-02-13T16:59:28;78993.38;;;3.74;53.08
63665;BME280;49820;33.966;73.390;2023-02-13T17:02:20;78986.78;;;3.88;53.51